sensor_id;sensor_type;location;lat;lon;timestamp;P1;durP1;ratioP1;P2;durP2;ratioP2
53801;SDS011;39709;53.334;6.534;2023-05-10T00:01:04;12.13;;;7.30;;
53801;SDS011;39709;53.334;6.534;2023-05-10T00:03:30;12.32;;;7.65;;
53801;SDS011;39709;53.334;6.534;2023-05-10T00:05:56;14.45;;;8.40;;
53801;SDS011;39709;53.334;6.534;2023-05-10T00:08:22;15.03;;;8.27;;
53801;SDS011;39709;53.334;6.534;2023-05-10T00:10:47;14.55;;;8.07;;
53801;SDS011;39709;53.334;6.534;2023-05-10T00:13:13;13.43;;;7.90;;
53801;SDS011;39709;53.334;6.534;2023-05-10T00:15:39;12.57;;;7.40;;
53801;SDS011;39709;53.334;6.534;2023-05-10T00:18:05;13.50;;;7.47;;
53801;SDS011;39709;53.334;6.534;2023-05-10T00:20:30;12.47;;;7.60;;
53801;SDS011;39709;53.334;6.534;2023-05-10T00:22:56;11.90;;;7.00;;
53801;SDS011;39709;53.334;6.534;2023-05-10T00:25:22;10.02;;;5.65;;
53801;SDS011;39709;53.334;6.534;2023-05-10T00:27:47;11.80;;;6.60;;
53801;SDS011;39709;53.334;6.534;2023-05-10T00:30:13;10.80;;;5.97;;
53801;SDS011;39709;53.334;6.534;2023-05-10T00:32:39;11.37;;;6.33;;
53801;SDS011;39709;53.334;6.534;2023-05-10T00:35:05;10.77;;;5.97;;
53801;SDS011;39709;53.334;6.534;2023-05-10T00:37:30;10.93;;;5.68;;
53801;SDS011;39709;53.334;6.534;2023-05-10T00:39:56;11.10;;;6.07;;
53801;SDS011;39709;53.334;6.534;2023-05-10T00:42:22;12.30;;;6.53;;
53801;SDS011;39709;53.334;6.534;2023-05-10T00:44:47;11.50;;;6.07;;
53801;SDS011;39709;53.334;6.534;2023-05-10T00:47:13;11.20;;;5.90;;
53801;SDS011;39709;53.334;6.534;2023-05-10T00:49:39;13.65;;;6.47;;
53801;SDS011;39709;53.334;6.534;2023-05-10T00:52:05;11.52;;;6.40;;
53801;SDS011;39709;53.334;6.534;2023-05-10T00:54:31;12.10;;;6.53;;
53801;SDS011;39709;53.334;6.534;2023-05-10T00:56:57;11.67;;;6.00;;
53801;SDS011;39709;53.334;6.534;2023-05-10T00:59:23;11.55;;;6.25;;
53801;SDS011;39709;53.334;6.534;2023-05-10T01:01:50;11.15;;;6.45;;
53801;SDS011;39709;53.334;6.534;2023-05-10T01:04:16;11.03;;;5.70;;
53801;SDS011;39709;53.334;6.534;2023-05-10T01:06:42;11.20;;;5.20;;
53801;SDS011;39709;53.334;6.534;2023-05-10T01:09:08;10.02;;;5.40;;
53801;SDS011;39709;53.334;6.534;2023-05-10T01:11:35;10.43;;;5.38;;
53801;SDS011;39709;53.334;6.534;2023-05-10T01:14:02;11.05;;;5.10;;
53801;SDS011;39709;53.334;6.534;2023-05-10T01:16:28;10.57;;;4.83;;
53801;SDS011;39709;53.334;6.534;2023-05-10T01:18:56;9.65;;;5.03;;
53801;SDS011;39709;53.334;6.534;2023-05-10T01:21:38;8.75;;;3.70;;
53801;SDS011;39709;53.334;6.534;2023-05-10T01:27:20;9.88;;;4.50;;
53801;SDS011;39709;53.334;6.534;2023-05-10T01:29:55;8.13;;;4.15;;
53801;SDS011;39709;53.334;6.534;2023-05-10T01:32:36;9.85;;;4.40;;
53801;SDS011;39709;53.334;6.534;2023-05-10T01:35:16;8.05;;;3.85;;
53801;SDS011;39709;53.334;6.534;2023-05-10T01:38:07;9.43;;;4.67;;
53801;SDS011;39709;53.334;6.534;2023-05-10T01:40:57;8.95;;;4.50;;
53801;SDS011;39709;53.334;6.534;2023-05-10T01:43:36;9.88;;;4.70;;
53801;SDS011;39709;53.334;6.534;2023-05-10T01:46:28;9.55;;;4.75;;
53801;SDS011;39709;53.334;6.534;2023-05-10T01:49:02;8.70;;;4.53;;
53801;SDS011;39709;53.334;6.534;2023-05-10T01:51:38;10.30;;;5.20;;
53801;SDS011;39709;53.334;6.534;2023-05-10T01:54:11;9.57;;;4.95;;
53801;SDS011;39709;53.334;6.534;2023-05-10T01:56:39;11.20;;;5.55;;
53801;SDS011;39709;53.334;6.534;2023-05-10T01:59:09;10.40;;;5.32;;
53801;SDS011;39709;53.334;6.534;2023-05-10T02:01:40;11.40;;;5.70;;
53801;SDS011;39709;53.334;6.534;2023-05-10T02:04:07;10.07;;;5.80;;
53801;SDS011;39709;53.334;6.534;2023-05-10T02:06:34;11.38;;;5.72;;
53801;SDS011;39709;53.334;6.534;2023-05-10T02:09:03;13.07;;;6.00;;
53801;SDS011;39709;53.334;6.534;2023-05-10T02:11:30;11.02;;;6.00;;
53801;SDS011;39709;53.334;6.534;2023-05-10T02:13:56;10.07;;;5.28;;
53801;SDS011;39709;53.334;6.534;2023-05-10T02:16:23;9.97;;;5.70;;
53801;SDS011;39709;53.334;6.534;2023-05-10T02:18:51;10.90;;;5.80;;
53801;SDS011;39709;53.334;6.534;2023-05-10T02:21:18;9.73;;;5.82;;
53801;SDS011;39709;53.334;6.534;2023-05-10T02:23:45;13.00;;;5.32;;
53801;SDS011;39709;53.334;6.534;2023-05-10T02:26:15;9.55;;;5.60;;
53801;SDS011;39709;53.334;6.534;2023-05-10T02:28:42;9.10;;;5.50;;
53801;SDS011;39709;53.334;6.534;2023-05-10T02:31:08;9.50;;;4.75;;
53801;SDS011;39709;53.334;6.534;2023-05-10T02:33:37;8.25;;;4.72;;
53801;SDS011;39709;53.334;6.534;2023-05-10T02:36:05;8.20;;;4.47;;
53801;SDS011;39709;53.334;6.534;2023-05-10T02:38:33;8.90;;;4.47;;
53801;SDS011;39709;53.334;6.534;2023-05-10T02:41:01;7.80;;;4.50;;
53801;SDS011;39709;53.334;6.534;2023-05-10T02:43:30;8.00;;;4.80;;
53801;SDS011;39709;53.334;6.534;2023-05-10T02:45:58;8.63;;;4.82;;
53801;SDS011;39709;53.334;6.534;2023-05-10T02:48:24;8.27;;;4.83;;
53801;SDS011;39709;53.334;6.534;2023-05-10T02:50:50;9.33;;;5.07;;
53801;SDS011;39709;53.334;6.534;2023-05-10T02:53:21;8.63;;;4.90;;
53801;SDS011;39709;53.334;6.534;2023-05-10T02:55:49;11.32;;;4.90;;
53801;SDS011;39709;53.334;6.534;2023-05-10T02:58:17;8.48;;;4.68;;
53801;SDS011;39709;53.334;6.534;2023-05-10T03:00:44;9.57;;;5.37;;
53801;SDS011;39709;53.334;6.534;2023-05-10T03:03:11;10.35;;;5.63;;
53801;SDS011;39709;53.334;6.534;2023-05-10T03:05:37;10.55;;;5.80;;
53801;SDS011;39709;53.334;6.534;2023-05-10T03:08:02;9.53;;;5.30;;
53801;SDS011;39709;53.334;6.534;2023-05-10T03:10:29;12.35;;;5.57;;
53801;SDS011;39709;53.334;6.534;2023-05-10T03:13:16;11.13;;;5.57;;
53801;SDS011;39709;53.334;6.534;2023-05-10T03:16:10;14.55;;;5.70;;
53801;SDS011;39709;53.334;6.534;2023-05-10T03:18:42;12.90;;;5.63;;
53801;SDS011;39709;53.334;6.534;2023-05-10T03:21:29;11.73;;;5.60;;
53801;SDS011;39709;53.334;6.534;2023-05-10T03:24:03;13.13;;;5.97;;
53801;SDS011;39709;53.334;6.534;2023-05-10T03:26:32;12.93;;;6.50;;
53801;SDS011;39709;53.334;6.534;2023-05-10T03:28:58;13.65;;;6.05;;
53801;SDS011;39709;53.334;6.534;2023-05-10T03:31:25;14.55;;;6.90;;
53801;SDS011;39709;53.334;6.534;2023-05-10T03:33:52;14.33;;;6.40;;
53801;SDS011;39709;53.334;6.534;2023-05-10T03:36:18;12.98;;;6.90;;
53801;SDS011;39709;53.334;6.534;2023-05-10T03:38:44;13.60;;;5.53;;
53801;SDS011;39709;53.334;6.534;2023-05-10T03:41:09;13.97;;;6.37;;
53801;SDS011;39709;53.334;6.534;2023-05-10T03:43:35;13.57;;;6.30;;
53801;SDS011;39709;53.334;6.534;2023-05-10T03:46:04;14.02;;;6.90;;
53801;SDS011;39709;53.334;6.534;2023-05-10T03:48:31;10.35;;;5.15;;
53801;SDS011;39709;53.334;6.534;2023-05-10T03:50:57;10.53;;;6.00;;
53801;SDS011;39709;53.334;6.534;2023-05-10T03:53:23;12.65;;;6.32;;
53801;SDS011;39709;53.334;6.534;2023-05-10T03:55:49;11.68;;;6.25;;
53801;SDS011;39709;53.334;6.534;2023-05-10T03:58:14;11.70;;;6.17;;
53801;SDS011;39709;53.334;6.534;2023-05-10T04:00:40;11.90;;;6.57;;
53801;SDS011;39709;53.334;6.534;2023-05-10T04:03:12;11.87;;;5.80;;
53801;SDS011;39709;53.334;6.534;2023-05-10T04:05:39;10.80;;;5.20;;
53801;SDS011;39709;53.334;6.534;2023-05-10T04:08:05;9.70;;;5.63;;
53801;SDS011;39709;53.334;6.534;2023-05-10T04:10:31;11.25;;;4.75;;
53801;SDS011;39709;53.334;6.534;2023-05-10T04:12:57;9.00;;;4.13;;
53801;SDS011;39709;53.334;6.534;2023-05-10T04:15:23;9.77;;;5.05;;
53801;SDS011;39709;53.334;6.534;2023-05-10T04:17:49;9.33;;;5.10;;
53801;SDS011;39709;53.334;6.534;2023-05-10T04:20:15;12.20;;;5.40;;
53801;SDS011;39709;53.334;6.534;2023-05-10T04:22:41;10.63;;;4.90;;
53801;SDS011;39709;53.334;6.534;2023-05-10T04:25:07;9.20;;;4.80;;
53801;SDS011;39709;53.334;6.534;2023-05-10T04:27:33;11.40;;;5.80;;
53801;SDS011;39709;53.334;6.534;2023-05-10T04:29:59;13.55;;;5.43;;
53801;SDS011;39709;53.334;6.534;2023-05-10T04:32:24;10.03;;;5.23;;
53801;SDS011;39709;53.334;6.534;2023-05-10T04:34:50;8.27;;;4.80;;
53801;SDS011;39709;53.334;6.534;2023-05-10T04:37:16;11.55;;;4.75;;
53801;SDS011;39709;53.334;6.534;2023-05-10T04:39:42;7.23;;;3.60;;
53801;SDS011;39709;53.334;6.534;2023-05-10T04:42:08;9.35;;;4.88;;
53801;SDS011;39709;53.334;6.534;2023-05-10T04:44:34;9.80;;;4.85;;
53801;SDS011;39709;53.334;6.534;2023-05-10T04:47:00;9.70;;;4.90;;
53801;SDS011;39709;53.334;6.534;2023-05-10T04:49:27;10.53;;;5.00;;
53801;SDS011;39709;53.334;6.534;2023-05-10T04:51:53;10.60;;;5.00;;
53801;SDS011;39709;53.334;6.534;2023-05-10T04:54:18;7.03;;;3.42;;
53801;SDS011;39709;53.334;6.534;2023-05-10T04:56:44;7.87;;;4.50;;
53801;SDS011;39709;53.334;6.534;2023-05-10T04:59:10;8.30;;;4.07;;
53801;SDS011;39709;53.334;6.534;2023-05-10T05:01:36;9.60;;;4.30;;
53801;SDS011;39709;53.334;6.534;2023-05-10T05:04:01;11.88;;;4.32;;
53801;SDS011;39709;53.334;6.534;2023-05-10T05:06:27;7.80;;;4.33;;
53801;SDS011;39709;53.334;6.534;2023-05-10T05:08:53;6.03;;;2.95;;
53801;SDS011;39709;53.334;6.534;2023-05-10T05:11:18;6.80;;;3.60;;
53801;SDS011;39709;53.334;6.534;2023-05-10T05:13:44;6.32;;;3.05;;
53801;SDS011;39709;53.334;6.534;2023-05-10T05:16:10;5.75;;;2.17;;
53801;SDS011;39709;53.334;6.534;2023-05-10T05:18:36;5.20;;;1.90;;
53801;SDS011;39709;53.334;6.534;2023-05-10T05:21:02;5.40;;;2.35;;
53801;SDS011;39709;53.334;6.534;2023-05-10T05:23:28;4.03;;;1.30;;
53801;SDS011;39709;53.334;6.534;2023-05-10T05:25:53;3.85;;;0.80;;
53801;SDS011;39709;53.334;6.534;2023-05-10T05:28:19;2.47;;;0.70;;
53801;SDS011;39709;53.334;6.534;2023-05-10T05:30:45;2.25;;;0.55;;
53801;SDS011;39709;53.334;6.534;2023-05-10T05:33:13;1.63;;;0.50;;
53801;SDS011;39709;53.334;6.534;2023-05-10T05:35:39;2.15;;;0.50;;
53801;SDS011;39709;53.334;6.534;2023-05-10T05:38:04;3.40;;;0.50;;
53801;SDS011;39709;53.334;6.534;2023-05-10T05:40:31;2.47;;;0.60;;
53801;SDS011;39709;53.334;6.534;2023-05-10T05:42:56;1.73;;;0.50;;
53801;SDS011;39709;53.334;6.534;2023-05-10T05:45:22;1.65;;;0.30;;
53801;SDS011;39709;53.334;6.534;2023-05-10T05:47:48;1.20;;;0.30;;
53801;SDS011;39709;53.334;6.534;2023-05-10T05:50:13;1.00;;;0.30;;
53801;SDS011;39709;53.334;6.534;2023-05-10T05:52:39;1.60;;;0.40;;
53801;SDS011;39709;53.334;6.534;2023-05-10T05:55:05;1.50;;;0.40;;
53801;SDS011;39709;53.334;6.534;2023-05-10T05:57:31;1.40;;;0.30;;
53801;SDS011;39709;53.334;6.534;2023-05-10T05:59:56;2.40;;;0.50;;
53801;SDS011;39709;53.334;6.534;2023-05-10T06:02:22;4.00;;;1.15;;
53801;SDS011;39709;53.334;6.534;2023-05-10T06:04:48;4.30;;;1.57;;
53801;SDS011;39709;53.334;6.534;2023-05-10T06:07:13;4.67;;;1.60;;
53801;SDS011;39709;53.334;6.534;2023-05-10T06:09:39;4.78;;;1.58;;
53801;SDS011;39709;53.334;6.534;2023-05-10T06:12:05;4.27;;;1.30;;
53801;SDS011;39709;53.334;6.534;2023-05-10T06:14:30;4.80;;;2.05;;
53801;SDS011;39709;53.334;6.534;2023-05-10T06:16:56;4.50;;;1.43;;
53801;SDS011;39709;53.334;6.534;2023-05-10T06:19:22;5.82;;;2.35;;
53801;SDS011;39709;53.334;6.534;2023-05-10T06:21:47;6.77;;;3.57;;
53801;SDS011;39709;53.334;6.534;2023-05-10T06:24:13;7.60;;;4.55;;
53801;SDS011;39709;53.334;6.534;2023-05-10T06:26:39;9.63;;;6.17;;
53801;SDS011;39709;53.334;6.534;2023-05-10T06:29:04;10.35;;;6.65;;
53801;SDS011;39709;53.334;6.534;2023-05-10T06:31:30;11.40;;;7.30;;
53801;SDS011;39709;53.334;6.534;2023-05-10T06:33:55;10.70;;;6.43;;
53801;SDS011;39709;53.334;6.534;2023-05-10T06:36:22;8.82;;;5.57;;
53801;SDS011;39709;53.334;6.534;2023-05-10T06:38:49;10.45;;;5.82;;
53801;SDS011;39709;53.334;6.534;2023-05-10T06:41:16;11.27;;;7.20;;
53801;SDS011;39709;53.334;6.534;2023-05-10T06:43:41;8.13;;;4.63;;
53801;SDS011;39709;53.334;6.534;2023-05-10T06:46:08;10.68;;;5.72;;
53801;SDS011;39709;53.334;6.534;2023-05-10T06:48:34;9.70;;;5.47;;
53801;SDS011;39709;53.334;6.534;2023-05-10T06:51:00;7.90;;;4.07;;
53801;SDS011;39709;53.334;6.534;2023-05-10T06:53:25;6.57;;;3.50;;
53801;SDS011;39709;53.334;6.534;2023-05-10T06:55:51;6.07;;;2.77;;
53801;SDS011;39709;53.334;6.534;2023-05-10T06:58:17;7.20;;;3.42;;
53801;SDS011;39709;53.334;6.534;2023-05-10T07:00:42;7.97;;;4.23;;
53801;SDS011;39709;53.334;6.534;2023-05-10T07:03:10;6.45;;;3.08;;
53801;SDS011;39709;53.334;6.534;2023-05-10T07:05:35;6.20;;;3.45;;
53801;SDS011;39709;53.334;6.534;2023-05-10T07:08:01;6.83;;;3.50;;
53801;SDS011;39709;53.334;6.534;2023-05-10T07:10:27;6.93;;;3.80;;
53801;SDS011;39709;53.334;6.534;2023-05-10T07:12:53;7.20;;;4.10;;
53801;SDS011;39709;53.334;6.534;2023-05-10T07:15:19;7.70;;;3.20;;
53801;SDS011;39709;53.334;6.534;2023-05-10T07:17:44;7.60;;;4.23;;
53801;SDS011;39709;53.334;6.534;2023-05-10T07:20:10;6.65;;;3.42;;
53801;SDS011;39709;53.334;6.534;2023-05-10T07:22:36;6.50;;;3.28;;
53801;SDS011;39709;53.334;6.534;2023-05-10T07:25:02;7.10;;;3.60;;
53801;SDS011;39709;53.334;6.534;2023-05-10T07:27:28;7.20;;;4.00;;
53801;SDS011;39709;53.334;6.534;2023-05-10T07:29:54;6.28;;;3.15;;
53801;SDS011;39709;53.334;6.534;2023-05-10T07:32:20;5.10;;;1.80;;
53801;SDS011;39709;53.334;6.534;2023-05-10T07:34:46;5.22;;;2.35;;
53801;SDS011;39709;53.334;6.534;2023-05-10T07:37:12;5.70;;;2.90;;
53801;SDS011;39709;53.334;6.534;2023-05-10T07:39:37;4.53;;;1.93;;
53801;SDS011;39709;53.334;6.534;2023-05-10T07:42:03;4.85;;;2.17;;
53801;SDS011;39709;53.334;6.534;2023-05-10T07:44:29;9.40;;;2.90;;
53801;SDS011;39709;53.334;6.534;2023-05-10T07:46:55;7.53;;;3.20;;
53801;SDS011;39709;53.334;6.534;2023-05-10T07:49:20;5.87;;;2.70;;
53801;SDS011;39709;53.334;6.534;2023-05-10T07:51:49;6.60;;;3.20;;
53801;SDS011;39709;53.334;6.534;2023-05-10T07:54:15;6.90;;;3.08;;
53801;SDS011;39709;53.334;6.534;2023-05-10T07:56:40;6.63;;;3.33;;
53801;SDS011;39709;53.334;6.534;2023-05-10T07:59:14;6.40;;;3.10;;
53801;SDS011;39709;53.334;6.534;2023-05-10T08:01:40;7.47;;;3.05;;
53801;SDS011;39709;53.334;6.534;2023-05-10T08:04:06;6.65;;;2.88;;
53801;SDS011;39709;53.334;6.534;2023-05-10T08:06:32;5.60;;;2.03;;
53801;SDS011;39709;53.334;6.534;2023-05-10T08:08:58;5.93;;;2.65;;
53801;SDS011;39709;53.334;6.534;2023-05-10T08:11:24;6.07;;;2.77;;
53801;SDS011;39709;53.334;6.534;2023-05-10T08:13:50;6.65;;;3.50;;
53801;SDS011;39709;53.334;6.534;2023-05-10T08:16:16;6.43;;;1.50;;
53801;SDS011;39709;53.334;6.534;2023-05-10T08:18:43;2.43;;;0.60;;
53801;SDS011;39709;53.334;6.534;2023-05-10T08:21:12;3.05;;;0.85;;
53801;SDS011;39709;53.334;6.534;2023-05-10T08:23:38;2.92;;;0.70;;
53801;SDS011;39709;53.334;6.534;2023-05-10T08:26:04;5.30;;;2.00;;
53801;SDS011;39709;53.334;6.534;2023-05-10T08:28:30;5.87;;;2.63;;
53801;SDS011;39709;53.334;6.534;2023-05-10T08:30:56;6.13;;;2.38;;
53801;SDS011;39709;53.334;6.534;2023-05-10T08:33:22;5.00;;;1.40;;
53801;SDS011;39709;53.334;6.534;2023-05-10T08:35:47;4.17;;;1.43;;
53801;SDS011;39709;53.334;6.534;2023-05-10T08:38:13;5.00;;;1.30;;
53801;SDS011;39709;53.334;6.534;2023-05-10T08:40:42;3.75;;;1.00;;
53801;SDS011;39709;53.334;6.534;2023-05-10T08:43:10;2.95;;;0.82;;
53801;SDS011;39709;53.334;6.534;2023-05-10T08:45:37;4.78;;;0.90;;
53801;SDS011;39709;53.334;6.534;2023-05-10T08:48:08;3.00;;;0.60;;
53801;SDS011;39709;53.334;6.534;2023-05-10T08:50:38;3.53;;;0.60;;
53801;SDS011;39709;53.334;6.534;2023-05-10T08:53:06;2.30;;;0.50;;
53801;SDS011;39709;53.334;6.534;2023-05-10T08:55:35;3.22;;;0.77;;
53801;SDS011;39709;53.334;6.534;2023-05-10T08:58:03;4.30;;;1.00;;
53801;SDS011;39709;53.334;6.534;2023-05-10T09:00:30;4.33;;;0.90;;
53801;SDS011;39709;53.334;6.534;2023-05-10T09:03:00;6.07;;;1.80;;
53801;SDS011;39709;53.334;6.534;2023-05-10T09:05:26;5.90;;;1.52;;
53801;SDS011;39709;53.334;6.534;2023-05-10T09:07:52;5.30;;;1.77;;
53801;SDS011;39709;53.334;6.534;2023-05-10T09:10:18;5.90;;;1.80;;
53801;SDS011;39709;53.334;6.534;2023-05-10T09:12:45;5.00;;;1.45;;
53801;SDS011;39709;53.334;6.534;2023-05-10T09:15:12;5.97;;;1.67;;
53801;SDS011;39709;53.334;6.534;2023-05-10T09:17:40;8.00;;;2.20;;
53801;SDS011;39709;53.334;6.534;2023-05-10T09:20:07;5.00;;;1.53;;
53801;SDS011;39709;53.334;6.534;2023-05-10T09:22:33;5.78;;;2.10;;
53801;SDS011;39709;53.334;6.534;2023-05-10T09:25:09;6.97;;;2.08;;
53801;SDS011;39709;53.334;6.534;2023-05-10T09:27:37;5.82;;;2.33;;
53801;SDS011;39709;53.334;6.534;2023-05-10T09:30:04;4.57;;;1.63;;
53801;SDS011;39709;53.334;6.534;2023-05-10T09:32:38;4.90;;;1.83;;
53801;SDS011;39709;53.334;6.534;2023-05-10T09:35:11;5.82;;;2.45;;
53801;SDS011;39709;53.334;6.534;2023-05-10T09:37:39;5.20;;;2.03;;
53801;SDS011;39709;53.334;6.534;2023-05-10T09:40:15;5.53;;;2.17;;
53801;SDS011;39709;53.334;6.534;2023-05-10T09:42:52;5.10;;;1.67;;
53801;SDS011;39709;53.334;6.534;2023-05-10T09:45:18;5.93;;;1.50;;
53801;SDS011;39709;53.334;6.534;2023-05-10T09:47:44;4.95;;;1.42;;
53801;SDS011;39709;53.334;6.534;2023-05-10T09:50:10;5.60;;;1.33;;
53801;SDS011;39709;53.334;6.534;2023-05-10T09:52:53;4.97;;;1.57;;
53801;SDS011;39709;53.334;6.534;2023-05-10T09:55:20;4.00;;;1.13;;
53801;SDS011;39709;53.334;6.534;2023-05-10T09:57:47;4.93;;;1.42;;
53801;SDS011;39709;53.334;6.534;2023-05-10T10:00:18;4.18;;;1.30;;
53801;SDS011;39709;53.334;6.534;2023-05-10T10:02:48;4.63;;;1.50;;
53801;SDS011;39709;53.334;6.534;2023-05-10T10:07:59;4.38;;;1.30;;
53801;SDS011;39709;53.334;6.534;2023-05-10T10:10:26;4.50;;;1.50;;
53801;SDS011;39709;53.334;6.534;2023-05-10T10:12:52;5.15;;;1.20;;
53801;SDS011;39709;53.334;6.534;2023-05-10T10:15:20;4.37;;;1.30;;
53801;SDS011;39709;53.334;6.534;2023-05-10T10:17:46;5.20;;;1.17;;
53801;SDS011;39709;53.334;6.534;2023-05-10T10:20:14;3.22;;;0.80;;
53801;SDS011;39709;53.334;6.534;2023-05-10T10:22:40;3.95;;;1.00;;
53801;SDS011;39709;53.334;6.534;2023-05-10T10:25:07;4.03;;;1.00;;
53801;SDS011;39709;53.334;6.534;2023-05-10T10:36:01;2.97;;;0.77;;
53801;SDS011;39709;53.334;6.534;2023-05-10T10:38:37;3.47;;;1.00;;
53801;SDS011;39709;53.334;6.534;2023-05-10T10:41:34;4.80;;;1.35;;
53801;SDS011;39709;53.334;6.534;2023-05-10T10:46:58;8.68;;;2.28;;
53801;SDS011;39709;53.334;6.534;2023-05-10T10:49:50;4.97;;;1.73;;
53801;SDS011;39709;53.334;6.534;2023-05-10T10:57:23;5.38;;;1.20;;
53801;SDS011;39709;53.334;6.534;2023-05-10T10:59:51;5.25;;;1.67;;
53801;SDS011;39709;53.334;6.534;2023-05-10T11:10:36;7.85;;;2.45;;
53801;SDS011;39709;53.334;6.534;2023-05-10T11:13:04;6.53;;;2.47;;
53801;SDS011;39709;53.334;6.534;2023-05-10T11:15:31;9.20;;;3.17;;
53801;SDS011;39709;53.334;6.534;2023-05-10T11:18:17;9.73;;;2.77;;
53801;SDS011;39709;53.334;6.534;2023-05-10T11:20:44;8.77;;;2.72;;
53801;SDS011;39709;53.334;6.534;2023-05-10T11:23:15;10.38;;;3.22;;
53801;SDS011;39709;53.334;6.534;2023-05-10T11:25:42;10.13;;;3.80;;
53801;SDS011;39709;53.334;6.534;2023-05-10T11:28:12;8.55;;;3.70;;
53801;SDS011;39709;53.334;6.534;2023-05-10T11:30:38;9.80;;;4.20;;
53801;SDS011;39709;53.334;6.534;2023-05-10T11:33:05;8.65;;;4.40;;
53801;SDS011;39709;53.334;6.534;2023-05-10T11:35:38;10.68;;;4.65;;
53801;SDS011;39709;53.334;6.534;2023-05-10T11:38:09;10.23;;;4.35;;
53801;SDS011;39709;53.334;6.534;2023-05-10T11:40:36;8.80;;;4.28;;
53801;SDS011;39709;53.334;6.534;2023-05-10T11:43:03;12.87;;;4.93;;
53801;SDS011;39709;53.334;6.534;2023-05-10T11:45:33;11.10;;;4.97;;
53801;SDS011;39709;53.334;6.534;2023-05-10T11:48:00;9.00;;;4.40;;
53801;SDS011;39709;53.334;6.534;2023-05-10T11:50:26;11.13;;;4.57;;
53801;SDS011;39709;53.334;6.534;2023-05-10T11:52:56;10.23;;;4.43;;
53801;SDS011;39709;53.334;6.534;2023-05-10T11:55:23;12.80;;;5.47;;
53801;SDS011;39709;53.334;6.534;2023-05-10T11:57:52;11.23;;;5.03;;
53801;SDS011;39709;53.334;6.534;2023-05-10T12:00:19;12.30;;;5.72;;
53801;SDS011;39709;53.334;6.534;2023-05-10T12:02:45;12.55;;;5.80;;
53801;SDS011;39709;53.334;6.534;2023-05-10T12:05:11;13.63;;;5.87;;
53801;SDS011;39709;53.334;6.534;2023-05-10T12:07:37;11.93;;;5.32;;
53801;SDS011;39709;53.334;6.534;2023-05-10T12:10:09;15.38;;;5.65;;
53801;SDS011;39709;53.334;6.534;2023-05-10T12:12:39;13.30;;;6.53;;
53801;SDS011;39709;53.334;6.534;2023-05-10T12:15:10;14.75;;;5.60;;
53801;SDS011;39709;53.334;6.534;2023-05-10T12:17:38;12.45;;;5.53;;
53801;SDS011;39709;53.334;6.534;2023-05-10T12:22:45;15.00;;;6.93;;
53801;SDS011;39709;53.334;6.534;2023-05-10T12:25:18;12.90;;;5.97;;
53801;SDS011;39709;53.334;6.534;2023-05-10T12:27:52;12.65;;;5.40;;
53801;SDS011;39709;53.334;6.534;2023-05-10T12:30:23;15.48;;;6.03;;
53801;SDS011;39709;53.334;6.534;2023-05-10T12:32:50;11.18;;;5.00;;
53801;SDS011;39709;53.334;6.534;2023-05-10T12:35:17;12.35;;;5.00;;
53801;SDS011;39709;53.334;6.534;2023-05-10T12:37:48;16.30;;;4.80;;
53801;SDS011;39709;53.334;6.534;2023-05-10T12:40:15;10.63;;;4.60;;
53801;SDS011;39709;53.334;6.534;2023-05-10T12:42:41;8.55;;;3.33;;
53801;SDS011;39709;53.334;6.534;2023-05-10T12:45:07;8.07;;;3.28;;
53801;SDS011;39709;53.334;6.534;2023-05-10T12:47:34;8.53;;;3.83;;
53801;SDS011;39709;53.334;6.534;2023-05-10T12:50:00;11.32;;;3.80;;
53801;SDS011;39709;53.334;6.534;2023-05-10T12:52:27;8.45;;;3.90;;
53801;SDS011;39709;53.334;6.534;2023-05-10T12:54:53;9.15;;;4.03;;
53801;SDS011;39709;53.334;6.534;2023-05-10T12:57:22;11.20;;;3.63;;
53801;SDS011;39709;53.334;6.534;2023-05-10T12:59:48;7.22;;;2.75;;
53801;SDS011;39709;53.334;6.534;2023-05-10T13:02:13;7.22;;;2.63;;
53801;SDS011;39709;53.334;6.534;2023-05-10T13:04:40;8.57;;;3.23;;
53801;SDS011;39709;53.334;6.534;2023-05-10T13:07:07;7.82;;;2.80;;
53801;SDS011;39709;53.334;6.534;2023-05-10T13:09:32;8.98;;;2.92;;
53801;SDS011;39709;53.334;6.534;2023-05-10T13:11:58;7.00;;;2.97;;
53801;SDS011;39709;53.334;6.534;2023-05-10T13:14:24;8.02;;;3.17;;
53801;SDS011;39709;53.334;6.534;2023-05-10T13:16:50;9.43;;;4.25;;
53801;SDS011;39709;53.334;6.534;2023-05-10T13:19:16;7.53;;;3.17;;
53801;SDS011;39709;53.334;6.534;2023-05-10T13:21:42;6.75;;;2.80;;
53801;SDS011;39709;53.334;6.534;2023-05-10T13:24:09;6.25;;;2.35;;
53801;SDS011;39709;53.334;6.534;2023-05-10T13:26:36;4.95;;;1.90;;
53801;SDS011;39709;53.334;6.534;2023-05-10T13:29:02;5.70;;;1.73;;
53801;SDS011;39709;53.334;6.534;2023-05-10T13:31:28;6.63;;;2.10;;
53801;SDS011;39709;53.334;6.534;2023-05-10T13:33:54;6.00;;;2.13;;
53801;SDS011;39709;53.334;6.534;2023-05-10T13:36:20;7.15;;;2.53;;
53801;SDS011;39709;53.334;6.534;2023-05-10T13:38:46;5.43;;;2.20;;
53801;SDS011;39709;53.334;6.534;2023-05-10T13:41:11;6.40;;;2.47;;
53801;SDS011;39709;53.334;6.534;2023-05-10T13:43:37;7.33;;;2.33;;
53801;SDS011;39709;53.334;6.534;2023-05-10T13:46:03;5.80;;;2.45;;
53801;SDS011;39709;53.334;6.534;2023-05-10T13:48:28;6.43;;;2.80;;
53801;SDS011;39709;53.334;6.534;2023-05-10T13:50:54;9.00;;;3.93;;
53801;SDS011;39709;53.334;6.534;2023-05-10T13:53:20;10.98;;;4.80;;
53801;SDS011;39709;53.334;6.534;2023-05-10T13:55:46;9.57;;;4.60;;
53801;SDS011;39709;53.334;6.534;2023-05-10T13:58:12;9.88;;;5.18;;
53801;SDS011;39709;53.334;6.534;2023-05-10T14:00:37;10.83;;;5.40;;
53801;SDS011;39709;53.334;6.534;2023-05-10T14:03:03;11.57;;;5.72;;
53801;SDS011;39709;53.334;6.534;2023-05-10T14:05:30;11.98;;;5.60;;
53801;SDS011;39709;53.334;6.534;2023-05-10T14:07:55;13.40;;;6.87;;
53801;SDS011;39709;53.334;6.534;2023-05-10T14:10:22;13.88;;;6.65;;
53801;SDS011;39709;53.334;6.534;2023-05-10T14:12:47;16.43;;;8.63;;
53801;SDS011;39709;53.334;6.534;2023-05-10T14:15:14;17.10;;;9.48;;
53801;SDS011;39709;53.334;6.534;2023-05-10T14:17:40;16.00;;;8.48;;
53801;SDS011;39709;53.334;6.534;2023-05-10T14:20:06;14.40;;;7.73;;
53801;SDS011;39709;53.334;6.534;2023-05-10T14:22:32;15.77;;;9.60;;
53801;SDS011;39709;53.334;6.534;2023-05-10T14:24:58;15.73;;;8.90;;
53801;SDS011;39709;53.334;6.534;2023-05-10T14:27:23;14.52;;;8.15;;
53801;SDS011;39709;53.334;6.534;2023-05-10T14:29:49;15.60;;;8.30;;
53801;SDS011;39709;53.334;6.534;2023-05-10T14:32:15;16.83;;;9.85;;
53801;SDS011;39709;53.334;6.534;2023-05-10T14:34:40;18.23;;;9.77;;
53801;SDS011;39709;53.334;6.534;2023-05-10T14:37:06;16.85;;;9.20;;
53801;SDS011;39709;53.334;6.534;2023-05-10T14:39:32;17.40;;;9.60;;
53801;SDS011;39709;53.334;6.534;2023-05-10T14:41:58;15.75;;;8.50;;
53801;SDS011;39709;53.334;6.534;2023-05-10T14:44:23;17.57;;;9.33;;
53801;SDS011;39709;53.334;6.534;2023-05-10T14:46:50;14.93;;;7.53;;
53801;SDS011;39709;53.334;6.534;2023-05-10T14:49:15;13.98;;;7.65;;
53801;SDS011;39709;53.334;6.534;2023-05-10T14:51:41;11.07;;;5.30;;
53801;SDS011;39709;53.334;6.534;2023-05-10T14:54:07;11.65;;;6.65;;
53801;SDS011;39709;53.334;6.534;2023-05-10T14:56:33;12.37;;;7.20;;
53801;SDS011;39709;53.334;6.534;2023-05-10T14:58:58;11.40;;;5.67;;
53801;SDS011;39709;53.334;6.534;2023-05-10T15:01:25;10.40;;;5.88;;
53801;SDS011;39709;53.334;6.534;2023-05-10T15:03:51;9.00;;;4.60;;
53801;SDS011;39709;53.334;6.534;2023-05-10T15:06:16;9.55;;;4.30;;
53801;SDS011;39709;53.334;6.534;2023-05-10T15:08:42;10.37;;;4.90;;
53801;SDS011;39709;53.334;6.534;2023-05-10T15:11:08;10.40;;;4.88;;
53801;SDS011;39709;53.334;6.534;2023-05-10T15:13:34;8.80;;;4.20;;
53801;SDS011;39709;53.334;6.534;2023-05-10T15:16:00;6.87;;;3.43;;
53801;SDS011;39709;53.334;6.534;2023-05-10T15:18:26;8.27;;;4.05;;